Time;durP1;ratioP1;P1;durP2;ratioP2;P2;SDS_P1;SDS_P2;PMS_P1;PMS_P2;Temp;Humidity;BMP_temperature;BMP_pressure;BME280_temperature;BME280_humidity;BME280_pressure;Samples;Min_cycle;Max_cycle;Signal;HPM_P1;HPM_P2
2022/04/15 00:02:03;;;;;;;55.35;28.30;;;;;;;10.58;83.79;102472.97;5074840;28;20013;-77
2022/04/15 00:04:30;;;;;;;55.03;28.08;;;;;;;10.52;83.99;102478.94;5076461;28;20150;-78
2022/04/15 00:06:56;;;;;;;58.93;29.57;;;;;;;10.53;84.80;102486.00;5074807;28;20125;-78
2022/04/15 00:09:21;;;;;;;57.05;30.20;;;;;;;10.48;85.49;102481.06;5075358;28;20287;-78
2022/04/15 00:11:47;;;;;;;57.92;29.13;;;;;;;10.50;85.88;102491.69;5075343;28;20025;-77
2022/04/15 00:14:12;;;;;;;60.05;29.15;;;;;;;10.46;85.52;102482.22;5076110;28;20036;-76
2022/04/15 00:16:38;;;;;;;59.78;28.67;;;;;;;10.35;85.53;102482.31;5061141;28;20030;-77
2022/04/15 00:19:03;;;;;;;64.72;30.48;;;;;;;10.33;85.73;102486.00;5072279;28;20076;-77
2022/04/15 00:21:28;;;;;;;59.88;28.90;;;;;;;10.28;86.04;102482.88;5075735;28;20059;-77
2022/04/15 00:23:56;;;;;;;62.38;30.40;;;;;;;10.23;86.14;102482.44;5075349;28;20021;-77
2022/04/15 00:26:22;;;;;;;63.38;30.17;;;;;;;10.18;86.29;102482.00;5074629;28;20037;-78
2022/04/15 00:28:47;;;;;;;55.08;26.77;;;;;;;10.19;86.97;102480.16;5059592;28;20066;-78
2022/04/15 00:31:12;;;;;;;56.60;28.25;;;;;;;10.15;87.04;102481.44;5075224;28;20356;-78
2022/04/15 00:33:38;;;;;;;61.10;27.27;;;;;;;10.16;87.04;102478.59;5075435;28;20031;-78
2022/04/15 00:36:03;;;;;;;63.92;29.38;;;;;;;10.18;87.17;102479.31;5061186;28;20025;-77
2022/04/15 00:38:28;;;;;;;54.80;27.63;;;;;;;10.13;86.83;102473.47;5075724;28;20037;-78
2022/04/15 00:40:54;;;;;;;55.17;27.42;;;;;;;10.07;87.15;102476.75;5075487;28;20028;-78
2022/04/15 00:43:19;;;;;;;57.30;27.27;;;;;;;10.02;87.61;102487.06;5075767;28;20052;-77
2022/04/15 00:45:44;;;;;;;57.60;27.92;;;;;;;10.04;87.36;102480.56;5074967;28;20016;-78
2022/04/15 00:48:11;;;;;;;50.33;26.33;;;;;;;10.03;87.35;102483.38;5063927;28;20085;-77
2022/04/15 00:50:36;;;;;;;50.08;25.30;;;;;;;10.02;87.46;102487.91;5075489;28;20108;-77
2022/04/15 00:53:08;;;;;;;53.58;26.30;;;;;;;9.97;87.74;102490.16;5072531;28;20040;-77
2022/04/15 00:55:33;;;;;;;51.88;26.02;;;;;;;9.93;87.71;102494.13;5075851;28;20020;-78
2022/04/15 00:58:00;;;;;;;53.97;25.02;;;;;;;9.97;87.66;102492.84;5061422;28;20029;-77
2022/04/15 01:00:27;;;;;;;51.50;25.50;;;;;;;10.00;87.39;102494.41;5075636;28;20020;-78
2022/04/15 01:02:53;;;;;;;46.55;24.85;;;;;;;9.98;87.40;102491.00;5075475;28;20024;-78
2022/04/15 01:05:19;;;;;;;47.95;22.13;;;;;;;10.00;87.81;102497.09;5074690;28;20084;-78
2022/04/15 01:07:52;;;;;;;52.80;23.25;;;;;;;9.96;87.49;102493.84;5074820;28;20055;-76
2022/04/15 01:10:19;;;;;;;46.08;23.98;;;;;;;9.91;87.24;102497.94;5075315;28;20028;-78
2022/04/15 01:12:53;;;;;;;41.83;22.13;;;;;;;9.87;87.51;102489.28;5074622;28;20028;-78
2022/04/15 01:15:19;;;;;;;44.58;23.45;;;;;;;9.86;87.65;102493.81;5074625;28;20034;-78
2022/04/15 01:17:44;;;;;;;43.78;22.20;;;;;;;9.80;87.95;102497.06;5074886;28;20278;-77
2022/04/15 01:20:11;;;;;;;43.88;24.05;;;;;;;9.82;88.19;102499.59;5075319;28;20032;-77
2022/04/15 01:22:39;;;;;;;54.58;27.48;;;;;;;9.79;87.86;102497.19;5070681;28;20021;-78
2022/04/15 01:25:06;;;;;;;63.45;32.90;;;;;;;9.80;87.68;102494.38;5075400;28;20028;-77
2022/04/15 01:27:37;;;;;;;81.88;42.97;;;;;;;9.83;87.82;102499.47;5073774;28;20036;-78
2022/04/15 01:30:09;;;;;;;82.90;42.67;;;;;;;9.79;87.64;102498.03;5075140;28;20029;-78
2022/04/15 01:32:35;;;;;;;79.35;40.22;;;;;;;9.74;87.80;102494.91;5073331;28;20025;-78
2022/04/15 01:35:00;;;;;;;81.75;40.28;;;;;;;9.71;87.62;102505.91;5078584;28;20043;-77
2022/04/15 01:37:25;;;;;;;74.53;37.35;;;;;;;9.68;88.16;102492.75;5075200;28;20025;-76
2022/04/15 01:39:51;;;;;;;69.82;36.67;;;;;;;9.69;87.87;102502.53;5078056;28;20040;-78
2022/04/15 01:42:17;;;;;;;69.88;36.63;;;;;;;9.66;87.96;102502.78;5078742;28;20040;-79
2022/04/15 01:44:43;;;;;;;68.60;34.47;;;;;;;9.62;88.03;102507.59;5060958;28;20025;-77
2022/04/15 01:47:09;;;;;;;66.43;35.28;;;;;;;9.57;87.90;102506.28;5077078;28;20043;-78
2022/04/15 01:49:34;;;;;;;64.05;36.03;;;;;;;9.56;88.33;102507.28;5078152;28;20024;-77
2022/04/15 01:52:00;;;;;;;75.68;35.53;;;;;;;9.61;88.21;102510.41;5078778;28;20044;-78
2022/04/15 01:54:28;;;;;;;73.13;35.92;;;;;;;9.57;87.83;102511.69;5077888;28;20049;-78
2022/04/15 01:56:53;;;;;;;72.40;35.33;;;;;;;9.48;88.16;102509.78;5070933;28;20029;-76
2022/04/15 01:59:19;;;;;;;62.92;33.17;;;;;;;9.48;88.42;102510.66;5074786;28;20108;-78
2022/04/15 02:01:44;;;;;;;72.65;34.83;;;;;;;9.50;88.18;102513.19;5059302;28;20043;-78
2022/04/15 02:04:09;;;;;;;67.90;32.80;;;;;;;9.45;88.07;102514.47;5078068;28;20047;-77
2022/04/15 02:06:34;;;;;;;68.95;33.47;;;;;;;9.38;88.28;102515.13;5078071;28;20071;-77
2022/04/15 02:09:00;;;;;;;71.63;34.72;;;;;;;9.39;88.36;102514.13;5078092;28;20047;-76
2022/04/15 02:11:25;;;;;;;68.47;34.25;;;;;;;9.35;88.43;102518.94;5078363;28;20048;-77
2022/04/15 02:13:50;;;;;;;73.00;35.00;;;;;;;9.33;88.81;102520.03;5078026;28;20052;-77
2022/04/15 02:16:16;;;;;;;68.75;33.22;;;;;;;9.31;88.93;102514.78;5077653;28;20028;-77
2022/04/15 02:18:42;;;;;;;67.03;33.40;;;;;;;9.26;88.83;102516.16;5077888;28;20051;-77
2022/04/15 02:21:07;;;;;;;64.93;32.63;;;;;;;9.24;88.85;102518.97;5077692;28;20047;-78
2022/04/15 02:23:32;;;;;;;73.57;33.38;;;;;;;9.17;88.70;102524.03;5078431;28;20049;-76
2022/04/15 02:25:57;;;;;;;63.25;32.10;;;;;;;9.16;88.47;102516.09;5077744;28;20021;-77
2022/04/15 02:28:23;;;;;;;70.55;34.10;;;;;;;9.14;88.63;102523.47;5064730;28;20025;-77
2022/04/15 02:30:48;;;;;;;69.13;34.15;;;;;;;9.12;89.21;102525.41;5077360;28;20032;-77
2022/04/15 02:33:15;;;;;;;62.83;32.38;;;;;;;9.10;89.18;102528.22;5076932;28;20025;-77
2022/04/15 02:35:40;;;;;;;67.68;32.42;;;;;;;9.10;89.20;102527.38;5077748;28;20049;-78
2022/04/15 02:38:05;;;;;;;65.50;31.17;;;;;;;9.10;89.01;102530.91;5064581;28;20067;-77
2022/04/15 02:40:31;;;;;;;62.88;32.83;;;;;;;9.17;89.50;102539.31;5076846;28;20051;-78
2022/04/15 02:42:56;;;;;;;60.17;32.35;;;;;;;9.23;89.40;102538.78;5056376;28;20025;-76
2022/04/15 02:45:22;;;;;;;66.78;31.42;;;;;;;9.28;89.25;102541.94;5076834;28;20043;-78
2022/04/15 02:47:47;;;;;;;61.53;32.67;;;;;;;9.32;88.85;102546.06;5077674;28;20040;-76
2022/04/15 02:50:13;;;;;;;64.05;33.22;;;;;;;9.36;88.81;102550.16;5077730;28;20045;-76
2022/04/15 02:52:38;;;;;;;66.57;33.95;;;;;;;9.33;88.30;102550.44;5077018;28;20037;-77
2022/04/15 02:55:04;;;;;;;67.50;32.13;;;;;;;9.41;88.59;102561.38;5076612;28;20033;-77
2022/04/15 02:57:29;;;;;;;70.45;34.63;;;;;;;9.41;88.28;102561.38;5077231;28;20059;-78
2022/04/15 02:59:55;;;;;;;73.60;35.20;;;;;;;9.42;88.07;102557.69;5077368;28;20068;-78
2022/04/15 03:02:20;;;;;;;70.20;33.28;;;;;;;9.37;87.54;102559.97;5075174;28;20035;-77
2022/04/15 03:04:46;;;;;;;68.55;34.47;;;;;;;9.22;87.94;102566.63;5076655;28;20029;-78
2022/04/15 03:07:11;;;;;;;86.05;32.17;;;;;;;8.99;88.70;102561.38;5070998;28;20080;-77
2022/04/15 03:09:37;;;;;;;76.35;29.33;;;;;;;8.82;89.03;102572.69;5070208;28;20043;-77
2022/04/15 03:12:03;;;;;;;60.42;29.98;;;;;;;8.64;89.36;102574.22;5077258;28;20033;-77
2022/04/15 03:14:28;;;;;;;73.53;29.88;;;;;;;8.48;90.11;102571.94;5076785;28;20021;-78
2022/04/15 03:16:53;;;;;;;102.97;31.80;;;;;;;8.41;91.02;102566.22;5077043;28;20021;-77
2022/04/15 03:19:18;;;;;;;86.72;32.33;;;;;;;8.35;91.51;102564.84;5076440;28;20016;-77
2022/04/15 03:21:44;;;;;;;73.25;33.08;;;;;;;8.30;91.72;102576.94;5076530;28;20040;-77
2022/04/15 03:24:09;;;;;;;87.55;33.30;;;;;;;8.25;92.01;102571.09;5065083;28;20021;-77
2022/04/15 03:26:34;;;;;;;135.68;34.38;;;;;;;8.18;92.73;102569.88;5076351;28;20104;-76
2022/04/15 03:29:00;;;;;;;175.73;34.67;;;;;;;8.21;92.83;102575.84;5077052;28;20009;-77
2022/04/15 03:31:25;;;;;;;75.05;33.95;;;;;;;8.25;93.16;102566.59;5076839;28;20052;-78
2022/04/15 03:33:51;;;;;;;80.22;36.75;;;;;;;8.32;93.32;102574.97;5068865;28;20029;-78
2022/04/15 03:36:16;;;;;;;74.28;34.72;;;;;;;8.34;93.48;102581.06;5076114;28;20032;-78
2022/04/15 03:38:42;;;;;;;71.95;33.60;;;;;;;8.30;93.07;102576.94;5076536;28;20061;-77
2022/04/15 03:41:07;;;;;;;82.30;35.47;;;;;;;8.33;93.41;102584.75;5075302;28;20042;-78
2022/04/15 03:43:33;;;;;;;88.65;36.85;;;;;;;8.30;93.16;102587.69;5076159;28;20028;-78
2022/04/15 03:45:58;;;;;;;99.38;36.50;;;;;;;8.35;93.33;102591.69;5076081;28;20110;-77
2022/04/15 03:48:25;;;;;;;81.35;34.03;;;;;;;8.37;93.37;102586.19;5074937;28;20045;-77
2022/04/15 03:50:50;;;;;;;76.68;35.88;;;;;;;8.32;93.10;102593.75;5076665;28;20051;-78
2022/04/15 03:53:15;;;;;;;79.80;35.38;;;;;;;8.34;93.24;102583.75;5076607;28;20024;-78
2022/04/15 03:55:41;;;;;;;79.50;36.90;;;;;;;8.40;93.46;102590.47;5076106;28;20037;-78
2022/04/15 03:58:06;;;;;;;77.90;37.30;;;;;;;8.45;93.46;102591.84;5074474;28;21173;-78
2022/04/15 04:00:32;;;;;;;96.88;35.45;;;;;;;8.40;92.91;102588.66;5076374;28;20109;-77
2022/04/15 04:02:58;;;;;;;78.07;36.75;;;;;;;8.37;93.04;102596.91;5073751;28;20075;-77
2022/04/15 04:05:23;;;;;;;125.25;40.70;;;;;;;8.31;92.99;102594.72;5075549;28;20050;-77
2022/04/15 04:07:49;;;;;;;82.07;37.95;;;;;;;8.32;93.28;102593.75;5074188;28;20045;-78
2022/04/15 04:10:15;;;;;;;78.45;35.20;;;;;;;8.40;93.53;102590.47;5075698;28;20027;-76
2022/04/15 04:12:44;;;;;;;84.50;37.15;;;;;;;8.38;93.19;102590.59;5065382;28;20021;-77
2022/04/15 04:15:11;;;;;;;86.97;38.00;;;;;;;8.45;93.51;102591.84;5075891;28;20020;-78
2022/04/15 04:17:36;;;;;;;81.32;37.08;;;;;;;8.52;93.97;102589.47;5063513;28;20021;-77
2022/04/15 04:20:03;;;;;;;88.13;39.28;;;;;;;8.61;94.05;102590.56;5061525;28;21014;-78
2022/04/15 04:22:29;;;;;;;83.40;38.00;;;;;;;8.62;93.59;102592.28;5069935;28;20043;-77
2022/04/15 04:24:55;;;;;;;82.75;39.10;;;;;;;8.63;93.46;102607.38;5075188;28;20020;-77
2022/04/15 04:27:20;;;;;;;81.13;37.35;;;;;;;8.73;93.25;102600.28;5074618;28;20032;-77
2022/04/15 04:29:46;;;;;;;79.70;36.65;;;;;;;8.74;92.72;102602.84;5075292;28;20102;-77
2022/04/15 04:32:11;;;;;;;73.45;34.90;;;;;;;8.78;92.69;102598.06;5075843;28;20034;-77
2022/04/15 04:34:36;;;;;;;73.53;34.88;;;;;;;8.84;92.20;102608.28;5075315;28;20044;-77
2022/04/15 04:37:02;;;;;;;74.40;35.10;;;;;;;8.81;91.33;102607.72;5075061;28;20021;-77
2022/04/15 04:39:29;;;;;;;72.15;34.92;;;;;;;8.75;91.50;102603.69;5075042;28;20024;-78
2022/04/15 04:41:55;;;;;;;76.63;35.00;;;;;;;8.77;92.01;102607.13;5073866;28;20048;-78
2022/04/15 04:44:20;;;;;;;72.85;35.60;;;;;;;8.82;91.78;102604.91;5074492;28;20241;-77
2022/04/15 04:46:46;;;;;;;74.20;33.95;;;;;;;8.86;91.59;102616.25;5072908;28;20033;-77
2022/04/15 04:49:11;;;;;;;69.72;33.70;;;;;;;8.84;91.90;102616.34;5075058;28;20082;-77
2022/04/15 04:51:37;;;;;;;77.93;33.83;;;;;;;8.88;92.04;102619.66;5074664;28;20048;-77
2022/04/15 04:54:02;;;;;;;71.95;33.30;;;;;;;8.89;91.56;102626.72;5075072;28;20029;-78
2022/04/15 04:56:27;;;;;;;68.32;33.25;;;;;;;8.83;91.61;102622.72;5069273;28;20040;-78
2022/04/15 04:58:53;;;;;;;67.68;32.53;;;;;;;8.96;91.41;102627.94;5075110;28;20033;-78
2022/04/15 05:01:18;;;;;;;68.03;32.67;;;;;;;8.90;91.08;102625.72;5074924;28;20048;-78
2022/04/15 05:03:43;;;;;;;72.78;33.90;;;;;;;8.89;90.92;102635.63;5075689;28;20056;-77
2022/04/15 05:06:09;;;;;;;70.15;32.20;;;;;;;8.88;91.30;102641.97;5077050;28;20017;-78
2022/04/15 05:08:34;;;;;;;68.15;32.83;;;;;;;8.87;90.98;102650.16;5079294;28;20032;-79
2022/04/15 05:10:59;;;;;;;64.10;31.45;;;;;;;8.86;90.95;102653.81;5076130;28;20028;-77
2022/04/15 05:13:25;;;;;;;68.28;31.27;;;;;;;8.88;90.71;102649.19;5078863;28;20031;-77
2022/04/15 05:15:50;;;;;;;70.70;31.60;;;;;;;8.85;90.55;102652.97;5058515;28;20069;-78
2022/04/15 05:18:16;;;;;;;61.17;31.00;;;;;;;8.82;90.51;102655.91;5056109;28;20040;-78
2022/04/15 05:20:41;;;;;;;59.38;30.50;;;;;;;8.86;90.55;102654.66;5075385;28;20039;-79
2022/04/15 05:23:06;;;;;;;59.20;29.75;;;;;;;8.86;90.56;102659.19;5077439;28;20024;-79
2022/04/15 05:25:32;;;;;;;63.92;29.85;;;;;;;8.79;90.23;102658.84;5075575;28;20064;-77
2022/04/15 05:27:58;;;;;;;62.47;31.00;;;;;;;8.86;90.94;102653.81;5077141;28;20102;-78
2022/04/15 05:30:24;;;;;;;65.15;31.50;;;;;;;8.90;90.66;102666.00;5077100;28;20017;-80
2022/04/15 05:32:49;;;;;;;60.25;29.35;;;;;;;8.92;90.05;102666.75;5077371;28;20036;-79
2022/04/15 05:35:15;;;;;;;61.95;29.58;;;;;;;8.90;90.24;102663.31;5075804;28;20092;-79
2022/04/15 05:37:40;;;;;;;62.80;30.55;;;;;;;8.89;89.58;102677.75;5077051;28;20100;-78
2022/04/15 05:40:06;;;;;;;58.65;29.33;;;;;;;8.89;89.61;102680.41;5076557;28;20025;-79
2022/04/15 05:42:31;;;;;;;54.78;27.25;;;;;;;8.86;89.81;102676.16;5077292;28;20025;-78
2022/04/15 05:44:56;;;;;;;51.05;27.17;;;;;;;8.83;90.17;102679.09;5075143;28;20021;-79
2022/04/15 05:47:22;;;;;;;56.58;27.50;;;;;;;8.88;90.10;102686.78;5077840;28;20059;-79
2022/04/15 05:49:47;;;;;;;59.55;29.08;;;;;;;8.79;90.32;102680.31;5077367;28;20044;-79
2022/04/15 05:52:14;;;;;;;56.05;27.58;;;;;;;8.71;90.12;102688.13;5076740;28;20243;-77
2022/04/15 05:54:39;;;;;;;62.45;28.85;;;;;;;8.75;91.07;102682.41;5066492;28;20029;-75
2022/04/15 05:57:05;;;;;;;53.05;26.50;;;;;;;8.76;90.90;102694.00;5075216;28;20032;-77
2022/04/15 05:59:30;;;;;;;51.22;26.58;;;;;;;8.79;90.68;102693.72;5074914;28;20036;-77
2022/04/15 06:01:55;;;;;;;54.67;27.95;;;;;;;8.80;90.88;102692.78;5064496;28;20056;-77
2022/04/15 06:04:21;;;;;;;55.72;26.52;;;;;;;8.92;91.09;102696.28;5075201;28;20021;-76
2022/04/15 06:06:47;;;;;;;54.47;27.55;;;;;;;9.01;90.67;102693.69;5068730;28;20100;-77
2022/04/15 06:09:13;;;;;;;55.05;25.75;;;;;;;9.11;90.29;102695.59;5065320;28;20033;-77
2022/04/15 06:11:39;;;;;;;50.28;25.85;;;;;;;9.20;90.40;102700.22;5075355;28;20031;-76
2022/04/15 06:14:06;;;;;;;49.13;26.33;;;;;;;9.28;89.49;102703.13;5066675;28;20057;-77
2022/04/15 06:16:32;;;;;;;51.10;26.25;;;;;;;9.31;88.99;102702.88;5066365;28;20041;-73
2022/04/15 06:18:58;;;;;;;48.80;26.63;;;;;;;9.39;89.17;102699.53;5064738;28;20029;-74
2022/04/15 06:21:24;;;;;;;58.92;28.25;;;;;;;9.49;88.19;102705.00;5066871;28;20037;-75
2022/04/15 06:23:49;;;;;;;51.20;25.90;;;;;;;9.40;87.60;102707.50;5072769;28;20036;-76
2022/04/15 06:26:14;;;;;;;51.75;25.85;;;;;;;9.47;88.02;102709.66;5077480;28;20029;-76
2022/04/15 06:28:40;;;;;;;46.78;22.58;;;;;;;9.50;87.01;102709.38;5076150;28;20059;-74
2022/04/15 06:31:05;;;;;;;45.10;23.02;;;;;;;9.37;86.47;102714.94;5074668;28;20025;-73
2022/04/15 06:33:30;;;;;;;36.10;19.45;;;;;;;9.27;86.44;102722.06;5069358;28;20058;-75
2022/04/15 06:35:56;;;;;;;38.42;20.02;;;;;;;9.22;86.67;102723.31;5058138;28;20038;-76
2022/04/15 06:38:21;;;;;;;39.83;19.85;;;;;;;9.17;86.40;102716.63;5063807;28;20105;-75
2022/04/15 06:40:47;;;;;;;39.13;20.13;;;;;;;9.23;87.12;102721.47;5050411;28;20033;-76
2022/04/15 06:43:14;;;;;;;43.70;21.45;;;;;;;9.35;87.00;102720.47;5070045;28;20037;-74
2022/04/15 06:45:39;;;;;;;38.78;20.85;;;;;;;9.43;86.76;102726.03;5057689;28;20040;-74
2022/04/15 06:48:05;;;;;;;41.03;21.00;;;;;;;9.55;85.81;102734.06;5060982;28;20051;-75
2022/04/15 06:50:31;;;;;;;43.05;21.92;;;;;;;9.62;84.59;102732.56;5054470;28;20025;-75
2022/04/15 06:52:56;;;;;;;39.22;21.63;;;;;;;9.61;84.60;102736.22;5047986;28;20044;-74
2022/04/15 06:55:21;;;;;;;39.25;20.98;;;;;;;9.64;84.63;102746.72;5060416;28;20569;-76
2022/04/15 06:57:47;;;;;;;46.95;22.48;;;;;;;9.73;84.17;102745.94;5051389;28;20026;-76
2022/04/15 07:00:13;;;;;;;46.13;22.67;;;;;;;9.66;83.72;102744.75;5052364;28;20044;-76
2022/04/15 07:02:39;;;;;;;43.88;22.02;;;;;;;9.70;83.68;102751.59;5056123;28;20025;-76
2022/04/15 07:05:05;;;;;;;43.95;21.77;;;;;;;9.85;83.27;102750.28;5056100;28;20330;-75
2022/04/15 07:07:31;;;;;;;41.65;21.63;;;;;;;9.88;83.28;102758.09;5056852;28;20519;-75
2022/04/15 07:09:56;;;;;;;42.25;21.30;;;;;;;9.97;82.68;102752.91;5059712;28;20009;-76
2022/04/15 07:12:21;;;;;;;37.88;20.95;;;;;;;10.05;81.47;102751.25;5071634;28;20151;-76
2022/04/15 07:14:47;;;;;;;38.17;19.83;;;;;;;10.08;80.63;102758.22;5055388;28;20077;-74
2022/04/15 07:17:12;;;;;;;35.17;20.13;;;;;;;10.06;80.50;102754.81;5071950;28;20041;-76
2022/04/15 07:19:38;;;;;;;33.53;19.25;;;;;;;10.02;80.66;102758.75;5065446;28;20183;-75
2022/04/15 07:22:05;;;;;;;32.13;19.35;;;;;;;9.98;80.35;102759.97;5073430;28;20032;-74
2022/04/15 07:24:33;;;;;;;40.60;20.02;;;;;;;9.97;80.95;102763.66;5061394;28;20029;-76
2022/04/15 07:26:59;;;;;;;35.37;19.13;;;;;;;9.99;80.64;102750.94;5054736;28;20060;-75
2022/04/15 07:29:26;;;;;;;36.70;20.05;;;;;;;10.00;80.13;102758.03;5057878;28;20033;-75
2022/04/15 07:31:52;;;;;;;34.30;19.38;;;;;;;10.21;80.09;102763.41;5056601;28;20041;-75
2022/04/15 07:34:17;;;;;;;32.75;18.98;;;;;;;10.42;79.54;102758.03;5059093;28;20374;-74
2022/04/15 07:36:44;;;;;;;28.75;16.95;;;;;;;10.66;76.57;102766.63;5060759;28;20037;-74
2022/04/15 07:39:11;;;;;;;25.25;16.70;;;;;;;10.86;75.36;102766.72;5050418;28;20167;-75
2022/04/15 07:41:38;;;;;;;24.63;16.02;;;;;;;11.26;74.06;102773.91;5055048;28;20029;-74
2022/04/15 07:44:10;;;;;;;23.02;14.80;;;;;;;11.29;72.81;102769.06;5059375;28;20017;-74
2022/04/15 07:46:36;;;;;;;17.83;12.93;;;;;;;11.51;72.53;102767.16;5054170;28;20057;-73
2022/04/15 07:49:03;;;;;;;17.50;11.65;;;;;;;11.57;72.00;102764.72;5068919;28;20061;-74
2022/04/15 07:51:28;;;;;;;17.25;10.45;;;;;;;11.82;71.83;102765.13;5061510;28;20128;-74
2022/04/15 07:53:54;;;;;;;18.15;10.75;;;;;;;12.30;69.02;102766.94;5062841;28;20023;-74
2022/04/15 07:56:19;;;;;;;16.17;8.52;;;;;;;12.34;67.96;102771.03;5069780;28;20040;-74
2022/04/15 07:58:45;;;;;;;10.45;8.48;;;;;;;12.27;68.01;102772.66;5060663;28;20044;-74
2022/04/15 08:01:10;;;;;;;14.18;8.90;;;;;;;12.12;68.67;102774.94;5062665;28;20028;-74
2022/04/15 08:03:36;;;;;;;16.77;8.88;;;;;;;12.05;68.74;102774.66;5051306;28;20026;-74
2022/04/15 08:06:02;;;;;;;13.30;8.80;;;;;;;12.20;68.58;102774.22;5050600;28;20152;-73
2022/04/15 08:08:28;;;;;;;11.93;8.32;;;;;;;12.37;68.45;102776.16;5051417;28;20033;-72
2022/04/15 08:10:53;;;;;;;14.85;7.72;;;;;;;13.03;67.33;102774.31;5055035;28;20042;-75
2022/04/15 08:13:19;;;;;;;11.63;6.90;;;;;;;14.07;62.82;102774.69;5054891;28;20094;-74
2022/04/15 08:15:45;;;;;;;8.48;6.03;;;;;;;14.53;60.67;102775.34;5059182;28;20116;-74
2022/04/15 08:18:11;;;;;;;11.90;6.45;;;;;;;15.16;59.26;102768.66;5059468;28;20047;-74
2022/04/15 08:20:36;;;;;;;10.93;6.20;;;;;;;15.63;57.56;102765.34;5051147;28;20013;-73
2022/04/15 08:23:03;;;;;;;10.60;6.40;;;;;;;16.60;55.08;102782.59;5055302;28;20033;-74
2022/04/15 08:25:29;;;;;;;16.08;5.47;;;;;;;16.88;52.52;102788.50;5056780;28;20036;-73
2022/04/15 08:27:55;;;;;;;9.93;5.78;;;;;;;17.09;51.19;102784.31;5069974;28;20059;-73
2022/04/15 08:30:20;;;;;;;11.73;5.03;;;;;;;17.38;51.53;102793.66;5069299;28;20080;-76
2022/04/15 08:32:53;;;;;;;9.13;5.80;;;;;;;17.21;51.00;102791.03;5074774;28;20134;-76
2022/04/15 08:35:18;;;;;;;8.68;5.97;;;;;;;16.67;53.63;102790.91;5074449;28;20017;-75
2022/04/15 08:37:44;;;;;;;10.63;5.00;;;;;;;18.48;48.39;102796.00;5073652;28;20031;-76
2022/04/15 08:40:11;;;;;;;8.85;4.60;;;;;;;18.77;47.02;102795.19;5071223;28;20025;-73
2022/04/15 08:42:36;;;;;;;;;;;;;;;18.04;47.37;102803.09;5071294;28;20020;-74
2022/04/15 08:45:02;;;;;;;8.93;4.82;;;;;;;17.10;49.80;102800.44;5051297;28;19913;-74
2022/04/15 08:47:29;;;;;;;7.78;4.32;;;;;;;16.08;51.96;102807.47;5047363;28;20044;-74
2022/04/15 08:49:55;;;;;;;9.20;4.50;;;;;;;15.73;54.39;102805.97;5053367;28;20028;-76
2022/04/15 08:52:22;;;;;;;10.00;4.82;;;;;;;15.30;55.18;102813.31;5048633;28;20029;-76
2022/04/15 08:54:48;;;;;;;10.02;4.85;;;;;;;15.86;54.34;102806.31;5055543;28;20064;-75
2022/04/15 08:57:13;;;;;;;6.93;4.35;;;;;;;16.05;52.92;102807.81;5048848;28;20029;-76
2022/04/15 08:59:41;;;;;;;8.57;4.55;;;;;;;16.18;53.36;102810.03;5037992;28;20029;-76
2022/04/15 09:02:09;;;;;;;7.70;4.13;;;;;;;17.58;50.14;102811.22;5041797;28;20386;-77
2022/04/15 09:04:34;;;;;;;7.63;4.53;;;;;;;17.88;48.07;102814.13;5043880;28;20136;-77
2022/04/15 09:07:00;;;;;;;8.73;4.25;;;;;;;17.52;49.41;102818.25;5035965;28;20163;-76
2022/04/15 09:09:30;;;;;;;9.02;4.32;;;;;;;16.71;51.35;102816.72;5037818;28;20044;-75
2022/04/15 09:11:59;;;;;;;8.85;4.28;;;;;;;16.32;52.35;102814.75;5047580;28;20028;-76
2022/04/15 09:14:26;;;;;;;8.43;4.20;;;;;;;16.18;53.15;102813.59;5048129;28;20038;-76
2022/04/15 09:16:52;;;;;;;10.68;3.92;;;;;;;16.26;53.29;102815.44;5055516;28;20063;-76
2022/04/15 09:19:18;;;;;;;10.43;4.60;;;;;;;16.75;51.90;102818.09;5044512;28;20057;-76
2022/04/15 09:21:54;;;;;;;5.85;4.05;;;;;;;16.82;51.14;102827.25;5034785;28;20120;-76
2022/04/15 09:24:29;;;;;;;8.32;4.57;;;;;;;16.35;51.87;102817.16;5035893;28;20029;-77
2022/04/15 09:26:54;;;;;;;8.02;4.18;;;;;;;16.89;51.30;102824.69;5051995;28;20033;-78
2022/04/15 09:29:21;;;;;;;7.97;4.35;;;;;;;17.03;50.05;102823.09;5051613;28;20411;-76
2022/04/15 09:31:47;;;;;;;9.95;4.32;;;;;;;17.21;49.87;102820.13;5041005;28;20026;-77
2022/04/15 09:34:12;;;;;;;8.10;4.22;;;;;;;16.91;50.28;102819.09;5035524;28;20066;-77
2022/04/15 09:36:39;;;;;;;10.93;4.15;;;;;;;17.68;49.05;102833.63;5038234;28;20032;-75
2022/04/15 09:39:10;;;;;;;6.88;4.10;;;;;;;18.51;47.51;102831.94;5035944;28;20482;-78
2022/04/15 09:41:40;;;;;;;9.57;3.85;;;;;;;18.61;46.71;102846.13;5034552;28;20083;-74
2022/04/15 09:44:07;;;;;;;8.95;4.05;;;;;;;19.47;45.20;102843.75;5043500;28;20094;-75
2022/04/15 09:46:33;;;;;;;9.65;3.65;;;;;;;19.92;43.56;102833.53;5060484;28;20029;-76
2022/04/15 09:49:01;;;;;;;7.78;3.95;;;;;;;19.58;43.14;102834.19;5072394;28;20050;-76
2022/04/15 09:51:28;;;;;;;10.20;3.88;;;;;;;19.32;43.91;102842.09;5068867;28;20093;-77
2022/04/15 09:53:55;;;;;;;5.27;3.63;;;;;;;19.52;44.49;102838.56;5045912;28;20029;-75
2022/04/15 09:56:22;;;;;;;8.90;4.53;;;;;;;19.50;44.23;102831.59;5043095;28;20049;-75
2022/04/15 09:58:54;;;;;;;11.18;3.95;;;;;;;19.87;43.60;102835.16;5043043;28;20048;-76
2022/04/15 10:01:20;;;;;;;7.57;4.43;;;;;;;19.13;44.27;102838.09;5050948;28;20037;-75
2022/04/15 10:03:48;;;;;;;5.68;3.92;;;;;;;19.06;44.55;102827.94;5043268;28;20116;-76
2022/04/15 10:06:13;;;;;;;8.23;4.25;;;;;;;19.24;43.98;102832.97;5050479;28;20026;-77
2022/04/15 10:08:39;;;;;;;7.45;3.88;;;;;;;19.52;43.86;102822.16;5045976;28;20430;-75
2022/04/15 10:11:04;;;;;;;7.25;4.35;;;;;;;19.65;43.91;102820.63;5041500;28;20021;-77
2022/04/15 10:13:30;;;;;;;6.15;4.35;;;;;;;19.77;43.67;102829.16;5041421;28;20056;-76
2022/04/15 10:15:56;;;;;;;11.90;3.50;;;;;;;20.81;42.23;102832.13;5044647;28;20495;-76
2022/04/15 10:18:25;;;;;;;12.85;4.47;;;;;;;20.18;42.20;102823.88;5045944;28;20028;-76
2022/04/15 10:20:51;;;;;;;8.00;4.10;;;;;;;21.26;40.96;102835.28;5046673;28;20029;-75
2022/04/15 10:23:17;;;;;;;8.40;4.37;;;;;;;21.59;39.47;102834.56;5037971;28;20071;-76
2022/04/15 10:25:43;;;;;;;19.42;4.93;;;;;;;21.22;39.89;102840.34;5035706;28;20395;-79
2022/04/15 10:28:15;;;;;;;11.63;4.75;;;;;;;21.20;39.86;102836.97;5045799;28;20025;-76
2022/04/15 10:30:51;;;;;;;6.97;4.53;;;;;;;20.88;40.43;102843.09;5051653;28;20021;-74
2022/04/15 10:33:39;;;;;;;12.43;5.50;;;;;;;19.94;42.56;102833.34;5055272;28;20063;-76
2022/04/15 10:36:15;;;;;;;8.75;4.13;;;;;;;20.86;40.72;102835.13;5054367;28;20035;-76
2022/04/15 10:39:02;;;;;;;6.63;4.50;;;;;;;20.87;40.38;102845.00;5047254;28;20039;-75
2022/04/15 10:41:28;;;;;;;9.50;4.63;;;;;;;20.71;41.08;102843.44;5045506;28;20087;-74
2022/04/15 10:43:57;;;;;;;7.90;4.35;;;;;;;20.39;42.04;102840.25;5047032;28;20029;-78
2022/04/15 10:46:29;;;;;;;9.70;4.32;;;;;;;20.68;41.81;102841.09;5051052;28;20405;-76
2022/04/15 10:48:57;;;;;;;9.02;5.28;;;;;;;19.79;42.06;102830.66;5055118;28;20024;-75
2022/04/15 10:51:25;;;;;;;6.65;4.57;;;;;;;20.19;42.16;102825.56;5052763;28;20413;-76
2022/04/15 10:53:51;;;;;;;6.72;5.47;;;;;;;20.78;40.06;102833.38;5044668;28;20051;-77
2022/04/15 10:56:18;;;;;;;8.35;5.60;;;;;;;20.26;42.32;102823.72;5046878;28;20029;-77
2022/04/15 11:02:02;;;;;;;8.80;4.80;;;;;;;19.63;42.60;102822.69;5038084;28;20123;-77
2022/04/15 11:04:35;;;;;;;8.25;5.50;;;;;;;18.13;45.43;102833.84;5037293;28;20052;-77
2022/04/15 11:07:14;;;;;;;7.28;5.57;;;;;;;17.46;47.73;102826.31;5045782;28;20080;-77
2022/04/15 11:09:39;;;;;;;10.52;5.75;;;;;;;17.10;49.46;102821.38;5045733;28;20369;-78
2022/04/15 11:12:06;;;;;;;9.90;5.75;;;;;;;18.17;47.46;102819.66;5037749;28;20051;-77
2022/04/15 11:14:34;;;;;;;12.70;6.07;;;;;;;18.64;45.84;102828.53;5040548;28;20446;-76
2022/04/15 11:16:59;;;;;;;10.65;5.78;;;;;;;18.89;45.54;102820.97;5045695;28;20267;-76